createdAt,value
2022-08-03T00:08:04.616Z,0.1
2022-08-03T00:18:04.510Z,0.1
2022-08-03T00:28:04.595Z,0.1
2022-08-03T00:38:04.517Z,0.2
2022-08-03T00:48:04.635Z,0.2
2022-08-03T00:58:04.501Z,0.2
2022-08-03T01:08:04.598Z,0.2
2022-08-03T01:18:04.694Z,0.2
2022-08-03T01:28:04.584Z,0.2
2022-08-03T01:38:04.694Z,0.3
2022-08-03T01:48:04.588Z,0.3
2022-08-03T01:58:06.753Z,0.3
2022-08-03T02:08:04.579Z,0.3
2022-08-03T02:18:04.665Z,0.3
2022-08-03T02:28:04.810Z,0.3
2022-08-03T02:38:04.709Z,0.4
2022-08-03T02:48:04.778Z,0.4
2022-08-03T02:58:04.670Z,0.4
2022-08-03T03:08:04.757Z,0.5
2022-08-03T03:18:04.677Z,0.5
2022-08-03T03:28:06.335Z,0.5
2022-08-03T03:38:04.666Z,0.5
2022-08-03T03:48:04.748Z,0.5
2022-08-03T03:58:04.899Z,0.5
2022-08-03T04:08:04.786Z,0.6
2022-08-03T04:18:04.859Z,0.6
2022-08-03T04:28:08.287Z,0.6
2022-08-03T04:38:04.851Z,0.6
2022-08-03T04:48:04.741Z,0.6
2022-08-03T04:58:04.835Z,0.6
2022-08-03T05:08:04.736Z,0.7
2022-08-03T05:18:04.846Z,0.7
2022-08-03T05:28:04.989Z,0.7
2022-08-03T05:38:04.872Z,0.7
2022-08-03T05:48:04.955Z,0.7
2022-08-03T05:58:04.845Z,0.7
2022-08-03T06:08:04.950Z,0.8
2022-08-03T06:18:04.842Z,0.8
2022-08-03T06:28:04.932Z,0.8
2022-08-03T06:38:04.833Z,0.8
2022-08-03T06:48:04.941Z,0.8
2022-08-03T06:58:05.074Z,0.8
2022-08-03T07:08:04.964Z,0.9
2022-08-03T07:18:05.050Z,0.9
2022-08-03T07:28:04.959Z,0.9
2022-08-03T07:38:05.051Z,0.9
2022-08-03T07:48:08.814Z,0.9
2022-08-03T07:58:05.068Z,0.9
2022-08-03T08:08:04.979Z,1
2022-08-03T08:18:05.083Z,1
2022-08-03T08:28:22.155Z,1
2022-08-03T08:38:05.745Z,1
2022-08-03T08:48:08.178Z,1
2022-08-03T08:58:05.102Z,1
2022-08-03T09:08:05.153Z,1.1
2022-08-03T09:18:05.077Z,1.1
2022-08-03T09:28:05.842Z,1.1
2022-08-03T09:38:11.957Z,1.2
2022-08-03T09:48:05.162Z,1.2
2022-08-03T09:58:05.080Z,1.2
2022-08-03T10:08:05.193Z,1.2
2022-08-03T10:18:05.053Z,1.2
2022-08-03T10:28:05.149Z,1.2
2022-08-03T10:38:05.250Z,1.3
2022-08-03T10:48:05.141Z,1.3
2022-08-03T10:58:09.319Z,1.3
2022-08-03T11:08:05.134Z,1.4
2022-08-03T11:18:05.246Z,1.4
2022-08-03T11:28:05.135Z,1.4
2022-08-03T11:38:05.579Z,1.5
2022-08-03T11:48:05.373Z,1.5
2022-08-03T11:58:57.292Z,1.5
2022-08-03T12:08:06.797Z,1.5
2022-08-03T12:18:05.217Z,1.5
2022-08-03T12:28:05.323Z,1.5
2022-08-03T12:38:05.230Z,1.6
2022-08-03T12:48:05.315Z,1.6
2022-08-03T12:58:05.204Z,1.6
2022-08-03T13:08:05.315Z,1.6
2022-08-03T13:18:05.440Z,1.6
2022-08-03T13:28:06.161Z,1.6
2022-08-03T13:38:05.508Z,1.7
2022-08-03T13:48:05.297Z,1.7
2022-08-03T13:58:07.405Z,1.7
2022-08-03T14:08:05.601Z,1.7
2022-08-03T14:18:05.405Z,1.7
2022-08-03T14:28:05.329Z,1.7
2022-08-03T14:38:05.418Z,1.8
2022-08-03T14:50:10.736Z,1.8
2022-08-03T14:58:05.391Z,1.8
2022-08-03T15:08:09.153Z,1.8
2022-08-03T15:18:05.393Z,1.8
2022-08-03T15:28:05.480Z,1.8
2022-08-03T15:38:09.163Z,1.9
2022-08-03T15:48:05.473Z,1.9
2022-08-03T15:58:59.080Z,1.9
2022-08-03T16:08:07.982Z,1.9
2022-08-03T16:18:05.575Z,1.9
2022-08-03T16:28:07.478Z,1.9
2022-08-03T16:38:09.705Z,2
2022-08-03T16:48:06.122Z,2
2022-08-03T16:58:05.887Z,2
2022-08-03T17:08:08.956Z,2
2022-08-03T17:18:05.562Z,2
2022-08-03T17:28:42.807Z,2
2022-08-03T17:38:07.905Z,2.1
2022-08-03T17:48:05.674Z,2.1
2022-08-03T17:58:05.598Z,2.1
2022-08-03T18:08:09.448Z,2.1
2022-08-03T18:18:07.508Z,2.1
2022-08-03T18:28:05.659Z,2.1
2022-08-03T18:38:05.958Z,2.2
2022-08-03T18:48:06.104Z,2.2
2022-08-03T18:58:06.718Z,2.2
2022-08-03T19:08:06.071Z,2.3
2022-08-03T19:18:08.971Z,2.3
2022-08-03T19:28:05.984Z,2.3
2022-08-03T19:38:05.740Z,2.3
2022-08-03T19:48:09.534Z,2.3
2022-08-03T19:58:05.752Z,2.3
2022-08-03T20:08:05.821Z,2.4
2022-08-03T20:18:05.734Z,2.4
2022-08-03T20:28:13.669Z,2.4
2022-08-03T20:38:05.730Z,2.4
2022-08-03T20:48:05.840Z,2.4
2022-08-03T20:58:05.703Z,2.4
2022-08-03T21:08:06.979Z,2.5
2022-08-03T21:18:05.764Z,2.5
2022-08-03T21:28:05.851Z,2.5
2022-08-03T21:38:05.955Z,2.6
2022-08-03T21:48:05.825Z,2.6
2022-08-03T21:58:05.935Z,2.6
2022-08-03T22:08:05.846Z,2.7
2022-08-03T22:18:05.931Z,2.7
2022-08-03T22:28:05.824Z,2.7
2022-08-03T22:38:05.914Z,2.8
2022-08-03T22:48:05.898Z,2.8
2022-08-03T22:58:05.912Z,2.8
2022-08-03T23:08:06.032Z,0
2022-08-03T23:18:05.911Z,0
2022-08-03T23:28:06.222Z,0
2022-08-03T23:38:21.766Z,0.1
2022-08-03T23:48:06.017Z,0.1
2022-08-03T23:58:09.081Z,0.1
